createdAt,value
2023-04-20T00:00:02.074Z,20.49
2023-04-20T00:00:34.126Z,20.64
2023-04-20T00:01:05.680Z,20.61
2023-04-20T00:01:37.267Z,20.58
2023-04-20T00:02:08.921Z,20.58
2023-04-20T00:02:40.861Z,20.54
2023-04-20T00:03:12.566Z,20.51
2023-04-20T00:03:44.312Z,20.56
2023-04-20T00:04:16.033Z,20.46
2023-04-20T00:04:47.727Z,20.57
2023-04-20T00:05:19.476Z,20.60
2023-04-20T00:05:51.223Z,20.59
2023-04-20T00:06:22.804Z,20.66
2023-04-20T00:06:54.377Z,20.59
2023-04-20T00:07:25.999Z,20.53
2023-04-20T00:07:57.684Z,20.55
2023-04-20T00:08:29.345Z,20.53
2023-04-20T00:09:01.284Z,20.57
2023-04-20T00:09:32.984Z,20.61
2023-04-20T00:10:04.778Z,20.55
2023-04-20T00:10:36.324Z,20.51
2023-04-20T00:11:08.043Z,20.47
2023-04-20T00:11:39.696Z,20.42
2023-04-20T00:12:11.264Z,20.44
2023-04-20T00:12:42.855Z,20.47
2023-04-20T00:13:14.428Z,20.49
2023-04-20T00:13:45.978Z,20.46
2023-04-20T00:14:17.623Z,20.51
2023-04-20T00:14:49.239Z,20.04
2023-04-20T00:15:20.834Z,19.57
2023-04-20T00:15:52.399Z,18.92
2023-04-20T00:16:24.060Z,18.40
2023-04-20T00:16:55.809Z,18.09
2023-04-20T00:17:27.548Z,17.74
2023-04-20T00:17:59.264Z,17.41
2023-04-20T00:18:30.863Z,17.19
2023-04-20T00:19:02.549Z,16.98
2023-04-20T00:19:34.216Z,16.94
2023-04-20T00:20:06.064Z,16.90
2023-04-20T00:20:37.651Z,16.69
2023-04-20T00:21:09.258Z,16.64
2023-04-20T00:21:40.875Z,16.66
2023-04-20T00:22:12.484Z,16.69
2023-04-20T00:22:44.055Z,16.56
2023-04-20T00:23:15.656Z,16.48
2023-04-20T00:23:47.474Z,16.40
2023-04-20T00:24:19.030Z,16.38
2023-04-20T00:24:50.599Z,16.29
2023-04-20T00:25:22.165Z,16.20
2023-04-20T00:25:53.816Z,16.20
2023-04-20T00:26:25.419Z,16.18
2023-04-20T00:26:57.048Z,16.19
2023-04-20T00:27:28.664Z,16.07
2023-04-20T00:28:00.216Z,16.06
2023-04-20T00:28:31.812Z,16.07
2023-04-20T00:29:03.392Z,16.05
2023-04-20T00:29:35.011Z,16.14
2023-04-20T00:30:06.932Z,16.20
2023-04-20T00:30:38.591Z,16.24
2023-04-20T00:31:10.284Z,16.18
2023-04-20T00:31:42.279Z,16.12
2023-04-20T00:32:13.943Z,16.09
2023-04-20T00:32:45.575Z,16.17
2023-04-20T00:33:17.205Z,16.13
2023-04-20T00:33:48.826Z,16.08
2023-04-20T00:34:20.577Z,16.04
2023-04-20T00:34:52.202Z,16.19
2023-04-20T00:35:23.766Z,16.37
2023-04-20T00:35:55.344Z,16.25
2023-04-20T00:36:26.912Z,16.16
2023-04-20T00:36:58.505Z,16.09
2023-04-20T00:37:30.188Z,16.07
2023-04-20T00:38:01.768Z,16.08
2023-04-20T00:38:33.363Z,16.09
2023-04-20T00:39:05.000Z,16.00
2023-04-20T00:39:36.610Z,15.96
2023-04-20T00:40:08.525Z,15.96
2023-04-20T00:40:40.097Z,16.03
2023-04-20T00:41:11.705Z,15.98
2023-04-20T00:41:43.286Z,15.97
2023-04-20T00:42:14.871Z,16.10
2023-04-20T00:42:46.444Z,16.11
2023-04-20T00:43:18.031Z,16.18
2023-04-20T00:43:50.222Z,16.21
2023-04-20T00:44:21.837Z,16.16
2023-04-20T00:44:53.513Z,16.11
2023-04-20T00:45:25.101Z,16.08
2023-04-20T00:45:56.692Z,15.98
2023-04-20T00:46:28.378Z,15.90
2023-04-20T00:47:00.092Z,16.00
2023-04-20T00:47:31.746Z,15.98
2023-04-20T00:48:03.775Z,15.98
2023-04-20T00:48:35.408Z,16.02
2023-04-20T00:49:07.048Z,15.96
2023-04-20T00:49:38.670Z,16.00
2023-04-20T00:50:10.784Z,15.92
2023-04-20T00:50:42.390Z,16.04
2023-04-20T00:51:13.967Z,16.05
2023-04-20T00:51:45.504Z,16.10
2023-04-20T00:52:17.088Z,15.93
2023-04-20T00:52:48.623Z,16.01
2023-04-20T00:53:20.475Z,16.07
2023-04-20T00:53:52.084Z,16.05
2023-04-20T00:54:23.698Z,16.12
2023-04-20T00:54:55.512Z,16.01
2023-04-20T00:55:27.156Z,15.98
2023-04-20T00:55:58.787Z,16.05
2023-04-20T00:56:30.419Z,15.99
2023-04-20T00:57:02.164Z,16.02
2023-04-20T00:57:33.787Z,16.09
2023-04-20T00:58:05.718Z,16.20
2023-04-20T00:58:37.390Z,16.36
2023-04-20T00:59:08.999Z,16.64
2023-04-20T00:59:41.173Z,16.99
2023-04-20T01:00:12.952Z,17.30
2023-04-20T01:00:44.529Z,17.58
2023-04-20T01:01:16.175Z,17.84
2023-04-20T01:01:47.853Z,18.07
2023-04-20T01:02:19.470Z,18.30
2023-04-20T01:02:51.175Z,18.50
2023-04-20T01:03:23.001Z,18.66
2023-04-20T01:03:54.738Z,18.82
2023-04-20T01:04:26.435Z,18.95
2023-04-20T01:04:58.207Z,19.08
2023-04-20T01:05:29.834Z,19.19
2023-04-20T01:06:01.628Z,19.28
2023-04-20T01:06:33.190Z,19.36
2023-04-20T01:07:04.797Z,19.43
2023-04-20T01:07:36.370Z,19.49
2023-04-20T01:08:07.988Z,19.55
2023-04-20T01:08:46.184Z,19.61
2023-04-20T01:09:17.817Z,19.66
2023-04-20T01:09:49.471Z,19.72
2023-04-20T01:10:21.039Z,19.77
2023-04-20T01:10:52.757Z,19.80
2023-04-20T01:11:24.334Z,19.84
2023-04-20T01:11:55.941Z,19.87
2023-04-20T01:12:27.611Z,19.90
2023-04-20T01:12:59.214Z,19.92
2023-04-20T01:13:30.917Z,19.97
2023-04-20T01:14:02.502Z,20.00
2023-04-20T01:14:34.083Z,20.00
2023-04-20T01:15:05.969Z,20.02
2023-04-20T01:15:37.569Z,20.06
2023-04-20T01:16:09.271Z,20.08
2023-04-20T01:16:40.870Z,20.10
2023-04-20T01:17:12.445Z,20.12
2023-04-20T01:17:44.064Z,20.14
2023-04-20T01:18:16.137Z,20.16
2023-04-20T01:18:48.165Z,20.18
2023-04-20T01:19:19.858Z,20.20
2023-04-20T01:19:51.585Z,20.24
2023-04-20T01:20:23.282Z,20.24
2023-04-20T01:20:54.842Z,20.26
2023-04-20T01:21:26.511Z,20.28
2023-04-20T01:21:58.067Z,20.28
2023-04-20T01:22:29.652Z,20.32
2023-04-20T01:23:01.312Z,20.33
2023-04-20T01:23:34.758Z,20.36
2023-04-20T01:24:06.477Z,20.39
2023-04-20T01:24:38.043Z,20.37
2023-04-20T01:25:09.842Z,20.40
2023-04-20T01:25:41.791Z,20.43
2023-04-20T01:26:14.409Z,20.46
2023-04-20T01:26:46.007Z,20.48
2023-04-20T01:27:17.560Z,20.52
2023-04-20T01:27:49.155Z,20.51
2023-04-20T01:28:20.753Z,20.51
2023-04-20T01:28:52.310Z,20.52
2023-04-20T01:29:24.564Z,20.52
2023-04-20T01:29:56.124Z,20.55
2023-04-20T01:30:27.897Z,20.57
2023-04-20T01:30:59.533Z,20.56
2023-04-20T01:31:31.275Z,20.59
2023-04-20T01:32:03.186Z,20.60
2023-04-20T01:32:34.950Z,20.61
2023-04-20T01:33:06.865Z,20.62
2023-04-20T01:33:38.617Z,20.61
2023-04-20T01:34:10.208Z,20.62
2023-04-20T01:34:41.862Z,20.62
2023-04-20T01:35:13.436Z,20.63
2023-04-20T01:35:45.133Z,20.65
2023-04-20T01:36:16.750Z,20.67
2023-04-20T01:36:48.361Z,20.71
2023-04-20T01:37:20.133Z,20.70
2023-04-20T01:37:51.774Z,20.70
2023-04-20T01:38:23.446Z,20.73
2023-04-20T01:38:55.838Z,20.73
2023-04-20T01:39:27.503Z,20.73
2023-04-20T01:39:59.181Z,20.71
2023-04-20T01:40:30.845Z,20.71
2023-04-20T01:41:03.171Z,20.73
2023-04-20T01:41:34.901Z,20.72
2023-04-20T01:42:06.607Z,20.74
2023-04-20T01:42:38.230Z,20.74
2023-04-20T01:43:09.816Z,20.73
2023-04-20T01:43:41.425Z,20.75
2023-04-20T01:44:12.972Z,20.74
2023-04-20T01:44:44.591Z,20.73
2023-04-20T01:45:16.139Z,20.74
2023-04-20T01:45:47.735Z,20.77
2023-04-20T01:46:19.330Z,20.77
2023-04-20T01:46:51.061Z,20.77
2023-04-20T01:47:22.880Z,20.74
2023-04-20T01:47:54.599Z,20.77
2023-04-20T01:48:26.179Z,20.79
2023-04-20T01:48:57.725Z,20.78
2023-04-20T01:49:29.383Z,20.79
2023-04-20T01:50:01.029Z,20.77
2023-04-20T01:50:32.782Z,20.77
2023-04-20T01:51:04.348Z,20.77
2023-04-20T01:51:36.759Z,20.77
2023-04-20T01:52:08.978Z,20.78
2023-04-20T01:52:40.548Z,20.77
2023-04-20T01:53:12.117Z,20.80
2023-04-20T01:53:43.716Z,20.79
2023-04-20T01:54:15.262Z,20.83
2023-04-20T01:54:46.842Z,20.80
2023-04-20T01:55:19.983Z,20.80
2023-04-20T01:55:51.905Z,20.80
2023-04-20T01:56:23.671Z,20.80
2023-04-20T01:56:55.347Z,20.82
2023-04-20T01:57:26.983Z,20.82
2023-04-20T01:57:58.685Z,20.83
2023-04-20T01:58:30.324Z,20.85
2023-04-20T01:59:01.974Z,20.85
2023-04-20T01:59:33.596Z,20.88
2023-04-20T02:00:05.585Z,20.85
2023-04-20T02:00:37.570Z,20.87
2023-04-20T02:01:09.247Z,20.90
2023-04-20T02:01:40.846Z,20.88
2023-04-20T02:02:12.466Z,20.89
2023-04-20T02:02:44.314Z,20.91
2023-04-20T02:03:48.695Z,20.93
2023-04-20T02:04:20.458Z,20.93
2023-04-20T02:04:51.725Z,20.90
2023-04-20T02:05:23.014Z,20.93
2023-04-20T02:05:54.342Z,20.96
2023-04-20T02:06:25.892Z,20.97
2023-04-20T02:06:57.429Z,20.95
2023-04-20T02:07:28.969Z,20.95
2023-04-20T02:08:00.591Z,20.97
2023-04-20T02:08:32.438Z,20.97
2023-04-20T02:09:04.001Z,20.96
2023-04-20T02:09:35.475Z,20.94
2023-04-20T02:10:07.189Z,20.94
2023-04-20T02:10:38.736Z,20.94
2023-04-20T02:11:10.352Z,20.93
2023-04-20T02:11:41.895Z,20.94
2023-04-20T02:12:13.331Z,20.97
2023-04-20T02:12:44.848Z,20.99
2023-04-20T02:13:16.401Z,20.98
2023-04-20T02:13:47.909Z,20.99
2023-04-20T02:14:19.406Z,21.00
2023-04-20T02:14:50.894Z,21.02
2023-04-20T02:15:22.465Z,21.02
2023-04-20T02:15:53.908Z,21.04
2023-04-20T02:16:25.576Z,21.02
2023-04-20T02:16:57.150Z,21.05
2023-04-20T02:17:28.785Z,21.04
2023-04-20T02:18:00.405Z,21.03
2023-04-20T02:18:32.043Z,21.05
2023-04-20T02:19:03.527Z,21.01
2023-04-20T02:19:35.235Z,21.02
2023-04-20T02:20:07.073Z,21.03
2023-04-20T02:20:38.724Z,21.05
2023-04-20T02:21:10.224Z,21.07
2023-04-20T02:21:41.732Z,21.05
2023-04-20T02:22:13.276Z,21.07
2023-04-20T02:22:44.860Z,21.07
2023-04-20T02:23:16.313Z,21.07
2023-04-20T02:23:47.941Z,21.08
2023-04-20T02:24:19.385Z,21.05
2023-04-20T02:24:50.932Z,21.09
2023-04-20T02:25:22.413Z,21.05
2023-04-20T02:25:53.885Z,21.06
2023-04-20T02:26:25.395Z,21.07
2023-04-20T02:26:56.931Z,21.07
2023-04-20T02:27:28.450Z,21.08
2023-04-20T02:28:00.123Z,21.08
2023-04-20T02:28:31.651Z,21.08
2023-04-20T02:29:03.215Z,21.08
2023-04-20T02:29:34.736Z,21.08
2023-04-20T02:30:06.572Z,21.08
2023-04-20T02:30:38.065Z,21.10
2023-04-20T02:31:09.656Z,21.11
2023-04-20T02:31:41.296Z,21.11
2023-04-20T02:32:12.876Z,21.11
2023-04-20T02:32:44.525Z,21.10
2023-04-20T02:33:16.034Z,21.10
2023-04-20T02:33:47.572Z,21.10
2023-04-20T02:34:19.092Z,21.12
2023-04-20T02:34:50.657Z,21.12
2023-04-20T02:35:22.234Z,21.11
2023-04-20T02:35:53.727Z,21.13
2023-04-20T02:36:25.168Z,21.12
2023-04-20T02:36:56.696Z,21.11
2023-04-20T02:37:28.224Z,21.13
2023-04-20T02:37:59.750Z,21.14
2023-04-20T02:38:31.281Z,21.13
2023-04-20T02:39:02.775Z,21.13
2023-04-20T02:39:34.317Z,21.12
2023-04-20T02:40:06.559Z,21.13
2023-04-20T02:40:38.013Z,21.13
2023-04-20T02:41:09.574Z,21.15
2023-04-20T02:41:41.119Z,21.14
2023-04-20T02:42:12.784Z,21.14
2023-04-20T02:42:44.266Z,21.15
2023-04-20T02:43:15.884Z,21.15
2023-04-20T02:43:47.375Z,21.15
2023-04-20T02:44:18.932Z,21.14
2023-04-20T02:44:50.454Z,21.14
2023-04-20T02:45:22.011Z,21.14
2023-04-20T02:45:53.480Z,21.15
2023-04-20T02:46:24.998Z,21.14
2023-04-20T02:46:56.506Z,21.13
2023-04-20T02:47:28.142Z,21.14
2023-04-20T02:47:59.861Z,21.15
2023-04-20T02:48:31.327Z,21.14
2023-04-20T02:49:02.878Z,21.14
2023-04-20T02:49:34.547Z,21.14
2023-04-20T02:50:06.369Z,21.15
2023-04-20T02:50:37.920Z,21.14
2023-04-20T02:51:09.358Z,21.13
2023-04-20T02:51:40.911Z,21.13
2023-04-20T02:52:12.472Z,21.14
2023-04-20T02:52:44.043Z,21.14
2023-04-20T02:53:15.521Z,21.14
2023-04-20T02:53:46.976Z,21.15
2023-04-20T02:54:18.477Z,21.16
2023-04-20T02:54:49.936Z,21.15
2023-04-20T02:55:21.523Z,21.16
2023-04-20T02:55:52.962Z,21.17
2023-04-20T02:56:24.519Z,21.15
2023-04-20T02:56:57.761Z,21.16
2023-04-20T02:57:29.678Z,21.16
2023-04-20T02:58:01.239Z,21.15
2023-04-20T02:58:32.750Z,21.14
2023-04-20T02:59:04.295Z,21.16
2023-04-20T02:59:35.760Z,21.15
2023-04-20T03:00:07.573Z,21.15
2023-04-20T03:00:39.357Z,21.17
2023-04-20T03:01:10.848Z,21.17
2023-04-20T03:01:42.388Z,21.17
2023-04-20T03:02:14.153Z,21.17
2023-04-20T03:02:45.876Z,21.19
2023-04-20T03:03:17.923Z,21.16
2023-04-20T03:03:49.788Z,21.16
2023-04-20T03:04:21.856Z,21.18
2023-04-20T03:04:53.583Z,21.17
2023-04-20T03:05:25.111Z,21.17
2023-04-20T03:05:56.852Z,21.17
2023-04-20T03:06:28.372Z,21.17
2023-04-20T03:06:59.931Z,21.17
2023-04-20T03:07:31.465Z,21.16
2023-04-20T03:08:02.988Z,21.18
2023-04-20T03:08:34.521Z,21.16
2023-04-20T03:09:06.221Z,21.16
2023-04-20T03:09:37.744Z,21.17
2023-04-20T03:10:09.579Z,21.16
2023-04-20T03:10:41.193Z,21.17
2023-04-20T03:11:12.713Z,21.16
2023-04-20T03:11:44.856Z,21.17
2023-04-20T03:12:16.326Z,21.17
2023-04-20T03:12:47.801Z,21.16
2023-04-20T03:13:19.325Z,21.16
2023-04-20T03:13:50.874Z,21.16
2023-04-20T03:14:22.334Z,21.18
2023-04-20T03:14:53.822Z,21.16
2023-04-20T03:15:25.400Z,21.17
2023-04-20T03:15:56.939Z,21.18
2023-04-20T03:16:28.562Z,21.17
2023-04-20T03:17:00.083Z,21.18
2023-04-20T03:17:31.681Z,21.17
2023-04-20T03:18:03.398Z,21.17
2023-04-20T03:18:34.874Z,21.18
2023-04-20T03:19:06.337Z,21.17
2023-04-20T03:19:37.829Z,21.17
2023-04-20T03:20:09.460Z,21.17
2023-04-20T03:20:40.945Z,21.18
2023-04-20T03:21:12.420Z,21.17
2023-04-20T03:21:44.414Z,21.19
2023-04-20T03:22:15.896Z,21.18
2023-04-20T03:22:47.376Z,21.19
2023-04-20T03:23:18.816Z,21.18
2023-04-20T03:23:50.175Z,21.20
2023-04-20T03:24:21.687Z,21.19
2023-04-20T03:24:53.658Z,21.20
2023-04-20T03:25:25.254Z,21.19
2023-04-20T03:25:56.814Z,21.19
2023-04-20T03:26:28.377Z,21.19
2023-04-20T03:26:59.799Z,21.19
2023-04-20T03:27:31.324Z,21.19
2023-04-20T03:28:02.819Z,21.20
2023-04-20T03:28:34.298Z,21.20
2023-04-20T03:29:05.757Z,21.20
2023-04-20T03:29:37.146Z,21.19
2023-04-20T03:30:08.967Z,21.20
2023-04-20T03:30:40.421Z,21.19
2023-04-20T03:31:11.881Z,21.20
2023-04-20T03:31:43.495Z,21.21
2023-04-20T03:32:14.990Z,21.20
2023-04-20T03:32:46.439Z,21.20
2023-04-20T03:33:17.886Z,21.20
2023-04-20T03:33:49.311Z,21.19
2023-04-20T03:34:20.753Z,21.20
2023-04-20T03:34:52.160Z,21.20
2023-04-20T03:35:23.627Z,21.20
2023-04-20T03:35:55.251Z,21.20
2023-04-20T03:36:26.714Z,21.19
2023-04-20T03:36:58.259Z,21.21
2023-04-20T03:37:29.746Z,21.21
2023-04-20T03:38:01.272Z,21.22
2023-04-20T03:38:32.684Z,21.20
2023-04-20T03:39:04.091Z,21.20
2023-04-20T03:39:35.600Z,21.21
2023-04-20T03:40:07.336Z,21.20
2023-04-20T03:40:38.782Z,21.20
2023-04-20T03:41:10.278Z,21.21
2023-04-20T03:41:41.705Z,21.22
2023-04-20T03:42:13.296Z,21.21
2023-04-20T03:42:44.739Z,21.20
2023-04-20T03:43:16.170Z,21.21
2023-04-20T03:43:47.582Z,21.21
2023-04-20T03:44:19.064Z,21.22
2023-04-20T03:44:50.469Z,21.22
2023-04-20T03:45:21.972Z,21.23
2023-04-20T03:45:53.438Z,21.22
2023-04-20T03:46:25.035Z,21.21
2023-04-20T03:46:56.685Z,21.23
2023-04-20T03:47:28.296Z,21.23
2023-04-20T03:47:59.775Z,21.24
2023-04-20T03:48:31.220Z,21.24
2023-04-20T03:49:02.659Z,21.24
2023-04-20T03:49:34.075Z,21.24
2023-04-20T03:50:05.788Z,21.23
2023-04-20T03:50:37.267Z,21.24
2023-04-20T03:51:08.720Z,21.25
2023-04-20T03:51:40.236Z,21.24
2023-04-20T03:52:11.752Z,21.23
2023-04-20T03:52:43.254Z,21.23
2023-04-20T03:53:14.741Z,21.23
2023-04-20T03:53:46.192Z,21.23
2023-04-20T03:54:17.595Z,21.23
2023-04-20T03:54:49.042Z,21.25
2023-04-20T03:55:20.497Z,21.25
2023-04-20T03:55:51.961Z,21.24
2023-04-20T03:56:23.403Z,21.23
2023-04-20T03:56:54.814Z,21.24
2023-04-20T03:57:26.262Z,21.24
2023-04-20T03:57:57.857Z,21.25
2023-04-20T03:58:29.362Z,21.24
2023-04-20T03:59:00.860Z,21.25
2023-04-20T03:59:32.320Z,21.23
2023-04-20T04:00:03.986Z,21.24
2023-04-20T04:00:35.582Z,21.24
2023-04-20T04:01:07.183Z,21.24
2023-04-20T04:01:38.658Z,21.23
2023-04-20T04:02:10.352Z,21.24
2023-04-20T04:02:42.186Z,21.24
2023-04-20T04:03:14.276Z,21.24
2023-04-20T04:03:46.302Z,21.24
2023-04-20T04:04:18.269Z,21.25
2023-04-20T04:04:50.370Z,21.26
2023-04-20T04:05:22.258Z,21.25
2023-04-20T04:05:53.784Z,21.25
2023-04-20T04:06:25.335Z,21.26
2023-04-20T04:06:56.847Z,21.26
2023-04-20T04:07:28.308Z,21.25
2023-04-20T04:07:59.827Z,21.26
2023-04-20T04:08:31.429Z,21.26
2023-04-20T04:09:02.900Z,21.26
2023-04-20T04:09:34.452Z,21.26
2023-04-20T04:10:06.262Z,21.26
2023-04-20T04:10:37.840Z,21.25
2023-04-20T04:11:09.469Z,21.26
2023-04-20T04:11:41.004Z,21.26
2023-04-20T04:12:12.494Z,21.25
2023-04-20T04:12:44.279Z,21.26
2023-04-20T04:13:15.849Z,21.27
2023-04-20T04:13:47.505Z,21.27
2023-04-20T04:14:18.941Z,21.26
2023-04-20T04:14:50.488Z,21.26
2023-04-20T04:15:21.969Z,21.26
2023-04-20T04:15:53.509Z,21.27
2023-04-20T04:16:25.139Z,21.27
2023-04-20T04:16:56.787Z,21.27
2023-04-20T04:17:28.472Z,21.26
2023-04-20T04:18:00.165Z,21.26
2023-04-20T04:18:31.881Z,21.26
2023-04-20T04:19:03.385Z,21.27
2023-04-20T04:19:34.913Z,21.26
2023-04-20T04:20:06.574Z,21.27
2023-04-20T04:20:38.085Z,21.27
2023-04-20T04:21:09.572Z,21.27
2023-04-20T04:21:41.060Z,21.27
2023-04-20T04:22:12.445Z,21.27
2023-04-20T04:22:44.034Z,21.26
2023-04-20T04:23:15.532Z,21.26
2023-04-20T04:23:47.087Z,21.26
2023-04-20T04:24:18.635Z,21.28
2023-04-20T04:24:50.133Z,21.27
2023-04-20T04:25:21.603Z,21.26
2023-04-20T04:25:53.086Z,21.27
2023-04-20T04:26:24.573Z,21.28
2023-04-20T04:26:56.660Z,21.28
2023-04-20T04:27:28.190Z,21.28
2023-04-20T04:27:59.645Z,21.29
2023-04-20T04:28:31.404Z,21.28
2023-04-20T04:29:02.877Z,21.29
2023-04-20T04:29:34.411Z,21.29
2023-04-20T04:30:06.200Z,21.28
2023-04-20T04:30:37.702Z,21.29
2023-04-20T04:31:09.197Z,21.29
2023-04-20T04:31:40.717Z,21.29
2023-04-20T04:32:12.253Z,21.29
2023-04-20T04:32:43.779Z,21.29
2023-04-20T04:33:15.238Z,21.29
2023-04-20T04:33:46.913Z,21.28
2023-04-20T04:34:18.507Z,21.28
2023-04-20T04:34:49.972Z,21.28
2023-04-20T04:35:21.468Z,21.28
2023-04-20T04:35:53.044Z,21.29
2023-04-20T04:36:24.558Z,21.30
2023-04-20T04:36:56.194Z,21.28
2023-04-20T04:37:27.786Z,21.29
2023-04-20T04:37:59.291Z,21.29
2023-04-20T04:38:30.748Z,21.29
2023-04-20T04:39:02.284Z,21.28
2023-04-20T04:39:33.870Z,21.28
2023-04-20T04:40:05.821Z,21.29
2023-04-20T04:40:37.480Z,21.28
2023-04-20T04:41:09.092Z,21.28
2023-04-20T04:41:40.782Z,21.28
2023-04-20T04:42:12.300Z,21.29
2023-04-20T04:42:43.809Z,21.28
2023-04-20T04:43:15.252Z,21.29
2023-04-20T04:43:46.724Z,21.30
2023-04-20T04:44:18.248Z,21.29
2023-04-20T04:44:49.760Z,21.28
2023-04-20T04:45:21.358Z,21.28
2023-04-20T04:45:52.864Z,21.29
2023-04-20T04:46:24.436Z,21.30
2023-04-20T04:46:55.889Z,21.31
2023-04-20T04:47:27.599Z,21.30
2023-04-20T04:47:59.224Z,21.28
2023-04-20T04:48:30.840Z,21.29
2023-04-20T04:49:02.354Z,21.29
2023-04-20T04:49:33.839Z,21.29
2023-04-20T04:50:05.584Z,21.29
2023-04-20T04:50:37.161Z,21.30
2023-04-20T04:51:08.853Z,21.29
2023-04-20T04:51:40.386Z,21.29
2023-04-20T04:52:11.864Z,21.29
2023-04-20T04:52:43.369Z,21.29
2023-04-20T04:53:14.869Z,21.28
2023-04-20T04:53:46.309Z,21.30
2023-04-20T04:54:17.766Z,21.30
2023-04-20T04:54:49.192Z,21.29
2023-04-20T04:55:20.663Z,21.30
2023-04-20T04:55:52.313Z,21.31
2023-04-20T04:56:24.032Z,21.31
2023-04-20T04:56:55.534Z,21.30
2023-04-20T04:57:27.065Z,21.30
2023-04-20T04:57:58.601Z,21.31
2023-04-20T04:58:30.112Z,21.29
2023-04-20T04:59:01.560Z,21.31
2023-04-20T04:59:33.016Z,21.29
2023-04-20T05:00:05.072Z,21.29
2023-04-20T05:00:36.570Z,21.29
2023-04-20T05:01:08.169Z,21.30
2023-04-20T05:01:39.713Z,21.30
2023-04-20T05:02:11.355Z,21.29
2023-04-20T05:02:43.074Z,21.29
2023-04-20T05:03:14.812Z,21.31
2023-04-20T05:03:46.674Z,21.31
2023-04-20T05:04:18.377Z,21.32
2023-04-20T05:04:49.969Z,21.32
2023-04-20T05:05:21.604Z,21.31
2023-04-20T05:05:53.087Z,21.32
2023-04-20T05:06:24.590Z,21.32
2023-04-20T05:06:56.174Z,21.32
2023-04-20T05:07:27.629Z,21.32
2023-04-20T05:07:59.101Z,21.31
2023-04-20T05:08:30.630Z,21.31
2023-04-20T05:09:02.092Z,21.32
2023-04-20T05:09:33.613Z,21.31
2023-04-20T05:10:05.350Z,21.30
2023-04-20T05:10:36.804Z,21.32
2023-04-20T05:11:08.355Z,21.32
2023-04-20T05:11:39.842Z,21.31
2023-04-20T05:12:11.377Z,21.31
2023-04-20T05:12:42.853Z,21.30
2023-04-20T05:13:14.353Z,21.31
2023-04-20T05:13:45.853Z,21.31
2023-04-20T05:14:17.358Z,21.31
2023-04-20T05:14:48.840Z,21.32
2023-04-20T05:15:20.288Z,21.32
2023-04-20T05:15:51.822Z,21.33
2023-04-20T05:16:23.350Z,21.33
2023-04-20T05:16:54.946Z,21.32
2023-04-20T05:17:26.394Z,21.33
2023-04-20T05:17:57.943Z,21.33
2023-04-20T05:18:29.463Z,21.32
2023-04-20T05:19:01.030Z,21.33
2023-04-20T05:19:32.475Z,21.31
2023-04-20T05:20:04.211Z,21.31
2023-04-20T05:20:35.671Z,21.32
2023-04-20T05:21:07.258Z,21.31
2023-04-20T05:21:38.715Z,21.31
2023-04-20T05:22:10.204Z,21.31
2023-04-20T05:22:41.819Z,21.30
2023-04-20T05:23:13.347Z,21.32
2023-04-20T05:23:44.825Z,21.31
2023-04-20T05:24:16.225Z,21.31
2023-04-20T05:24:47.647Z,21.31
2023-04-20T05:25:19.194Z,21.32
2023-04-20T05:25:50.628Z,21.31
2023-04-20T05:26:22.017Z,21.31
2023-04-20T05:26:53.512Z,21.31
2023-04-20T05:27:25.051Z,21.30
2023-04-20T05:27:56.547Z,21.31
2023-04-20T05:28:28.016Z,21.31
2023-04-20T05:28:59.510Z,21.31
2023-04-20T05:29:30.955Z,21.31
2023-04-20T05:30:16.674Z,21.31
2023-04-20T05:30:51.614Z,21.33
2023-04-20T05:31:23.166Z,21.31
2023-04-20T05:31:54.706Z,21.30
2023-04-20T05:32:26.199Z,21.30
2023-04-20T05:32:57.724Z,21.32
2023-04-20T05:33:29.224Z,21.30
2023-04-20T05:34:00.691Z,21.31
2023-04-20T05:34:32.106Z,21.32
2023-04-20T05:35:03.603Z,21.31
2023-04-20T05:35:35.109Z,21.30
2023-04-20T05:36:08.591Z,21.31
2023-04-20T05:36:40.130Z,21.30
2023-04-20T05:37:11.604Z,21.33
2023-04-20T05:37:43.103Z,21.31
2023-04-20T05:38:14.603Z,21.30
2023-04-20T05:38:46.127Z,21.30
2023-04-20T05:39:17.811Z,21.30
2023-04-20T05:39:49.528Z,21.30
2023-04-20T05:40:21.032Z,21.31
2023-04-20T05:40:52.506Z,21.30
2023-04-20T05:41:24.069Z,21.30
2023-04-20T05:41:55.582Z,21.30
2023-04-20T05:42:27.144Z,21.31
2023-04-20T05:42:58.701Z,21.31
2023-04-20T05:43:30.277Z,21.30
2023-04-20T05:44:01.725Z,21.30
2023-04-20T05:44:33.165Z,21.31
2023-04-20T05:45:05.080Z,21.31
2023-04-20T05:45:36.566Z,21.31
2023-04-20T05:46:08.160Z,21.31
2023-04-20T05:46:39.651Z,21.33
2023-04-20T05:47:11.124Z,21.32
2023-04-20T05:47:42.712Z,21.33
2023-04-20T05:48:14.260Z,21.32
2023-04-20T05:48:45.753Z,21.31
2023-04-20T05:49:17.433Z,21.33
2023-04-20T05:49:49.090Z,21.34
2023-04-20T05:50:20.638Z,21.34
2023-04-20T05:50:52.136Z,21.33
2023-04-20T05:51:23.560Z,21.32
2023-04-20T05:51:54.994Z,21.33
2023-04-20T05:52:26.519Z,21.31
2023-04-20T05:52:58.135Z,21.33
2023-04-20T05:53:29.628Z,21.32
2023-04-20T05:54:01.128Z,21.31
2023-04-20T05:54:32.685Z,21.33
2023-04-20T05:55:04.315Z,21.31
2023-04-20T05:55:35.790Z,21.32
2023-04-20T05:56:07.733Z,21.31
2023-04-20T05:56:39.201Z,21.31
2023-04-20T05:57:10.753Z,21.31
2023-04-20T05:57:42.241Z,21.31
2023-04-20T05:58:14.067Z,21.26
2023-04-20T05:58:45.688Z,21.26
2023-04-20T05:59:17.465Z,21.27
2023-04-20T05:59:49.169Z,21.28
2023-04-20T06:00:20.672Z,21.29
2023-04-20T06:00:52.297Z,21.29
2023-04-20T06:01:23.767Z,21.30
2023-04-20T06:01:55.329Z,21.30
2023-04-20T06:02:26.916Z,21.30
2023-04-20T06:02:58.521Z,21.29
2023-04-20T06:03:30.265Z,21.31
2023-04-20T06:04:02.328Z,21.30
2023-04-20T06:04:34.208Z,21.31
2023-04-20T06:05:06.157Z,21.28
2023-04-20T06:05:38.004Z,21.28
2023-04-20T06:06:09.590Z,21.28
2023-04-20T06:06:41.081Z,21.29
2023-04-20T06:07:12.472Z,21.29
2023-04-20T06:07:43.984Z,21.28
2023-04-20T06:08:15.400Z,21.29
2023-04-20T06:08:46.868Z,21.30
2023-04-20T06:09:18.684Z,21.30
2023-04-20T06:09:50.313Z,21.28
2023-04-20T06:10:21.829Z,21.28
2023-04-20T06:10:54.197Z,21.26
2023-04-20T06:11:25.748Z,21.28
2023-04-20T06:11:57.215Z,21.30
2023-04-20T06:12:28.794Z,21.29
2023-04-20T06:13:00.266Z,21.29
2023-04-20T06:13:31.708Z,21.30
2023-04-20T06:14:03.216Z,21.29
2023-04-20T06:14:34.669Z,21.30
2023-04-20T06:15:06.437Z,21.31
2023-04-20T06:15:37.999Z,21.31
2023-04-20T06:16:09.715Z,21.31
2023-04-20T06:16:41.332Z,21.31
2023-04-20T06:17:12.778Z,21.31
2023-04-20T06:17:44.287Z,21.31
2023-04-20T06:18:15.979Z,21.32
2023-04-20T06:18:47.389Z,21.32
2023-04-20T06:19:18.907Z,21.32
2023-04-20T06:19:50.472Z,21.32
2023-04-20T06:20:22.017Z,21.31
2023-04-20T06:20:53.519Z,21.32
2023-04-20T06:21:25.011Z,21.31
2023-04-20T06:21:57.131Z,21.31
2023-04-20T06:22:29.343Z,21.31
2023-04-20T06:23:00.824Z,21.32
2023-04-20T06:23:32.434Z,21.32
2023-04-20T06:24:04.222Z,21.33
2023-04-20T06:24:35.875Z,21.33
2023-04-20T06:25:07.638Z,21.34
2023-04-20T06:25:39.248Z,21.34
2023-04-20T06:26:10.868Z,21.33
2023-04-20T06:26:42.317Z,21.33
2023-04-20T06:27:13.945Z,21.32
2023-04-20T06:27:45.427Z,21.32
2023-04-20T06:28:16.963Z,21.32
2023-04-20T06:28:48.427Z,21.32
2023-04-20T06:29:19.943Z,21.32
2023-04-20T06:29:51.461Z,21.33
2023-04-20T06:30:23.066Z,21.33
2023-04-20T06:30:54.553Z,21.31
2023-04-20T06:31:26.144Z,21.32
2023-04-20T06:31:57.645Z,21.32
2023-04-20T06:32:29.157Z,21.34
2023-04-20T06:33:01.018Z,21.34
2023-04-20T06:33:32.586Z,21.33
2023-04-20T06:34:04.141Z,21.33
2023-04-20T06:34:35.660Z,21.33
2023-04-20T06:35:07.325Z,21.33
2023-04-20T06:35:39.511Z,21.35
2023-04-20T06:36:10.982Z,21.34
2023-04-20T06:36:42.826Z,21.34
2023-04-20T06:37:14.344Z,21.34
2023-04-20T06:37:45.832Z,21.34
2023-04-20T06:38:17.289Z,21.35
2023-04-20T06:38:48.805Z,21.35
2023-04-20T06:39:20.379Z,21.34
2023-04-20T06:39:54.961Z,21.35
2023-04-20T06:40:26.856Z,21.33
2023-04-20T06:40:58.351Z,21.34
2023-04-20T06:41:30.013Z,21.31
2023-04-20T06:42:01.571Z,21.31
2023-04-20T06:42:33.116Z,21.32
2023-04-20T06:43:04.655Z,21.33
2023-04-20T06:43:36.156Z,21.33
2023-04-20T06:44:07.689Z,21.33
2023-04-20T06:44:39.316Z,21.34
2023-04-20T06:45:11.038Z,21.34
2023-04-20T06:45:42.488Z,21.34
2023-04-20T06:46:14.085Z,21.35
2023-04-20T06:46:45.809Z,21.34
2023-04-20T06:47:17.322Z,21.34
2023-04-20T06:47:48.909Z,21.33